createdAt,value
2019-04-23T00:01:29.964Z,2.30
2019-04-23T00:03:54.806Z,2.10
2019-04-23T00:06:26.431Z,2.10
2019-04-23T00:08:57.847Z,2.00
2019-04-23T00:11:31.330Z,2.27
2019-04-23T00:13:57.747Z,2.05
2019-04-23T00:16:33.034Z,2.20
2019-04-23T00:18:58.903Z,1.95
2019-04-23T00:21:33.422Z,2.20
2019-04-23T00:24:21.008Z,2.40
2019-04-23T00:26:36.399Z,2.17
2019-04-23T00:29:13.591Z,1.70
2019-04-23T00:31:36.287Z,2.35
2019-04-23T00:34:09.442Z,2.00
2019-04-23T00:39:14.102Z,2.08
2019-04-23T00:41:44.287Z,1.90
2019-04-23T00:44:21.277Z,2.15
2019-04-23T00:46:52.739Z,2.00
2019-04-23T00:49:21.203Z,1.77
2019-04-23T00:52:05.888Z,2.17
2019-04-23T00:54:20.765Z,1.90
2019-04-23T00:56:54.546Z,2.00
2019-04-23T00:59:21.173Z,2.50
2019-04-23T01:04:25.537Z,2.17
2019-04-23T01:06:52.855Z,2.12
2019-04-23T01:09:35.172Z,2.30
2019-04-23T01:12:15.112Z,2.40
2019-04-23T01:14:29.277Z,2.27
2019-04-23T01:16:52.981Z,2.37
2019-04-23T01:19:37.520Z,2.20
2019-04-23T01:21:45.344Z,2.60
2019-04-23T01:24:28.890Z,2.47
2019-04-23T01:30:11.392Z,2.00
2019-04-23T01:35:17.495Z,2.70
2019-04-23T01:40:12.124Z,2.70
2019-04-23T01:42:43.932Z,2.35
2019-04-23T01:47:45.733Z,2.45
2019-04-23T01:55:24.525Z,2.58
2019-04-23T01:57:56.326Z,2.40
2019-04-23T02:00:27.324Z,2.50
2019-04-23T02:02:58.993Z,2.50
2019-04-23T02:05:27.466Z,2.40
2019-04-23T02:10:29.812Z,2.47
2019-04-23T02:12:57.117Z,2.58
2019-04-23T02:15:24.988Z,2.72
2019-04-23T02:18:03.978Z,2.47
2019-04-23T02:20:32.600Z,2.40
2019-04-23T02:23:21.360Z,2.45
2019-04-23T02:28:21.841Z,2.25
2019-04-23T02:38:31.546Z,2.50
2019-04-23T02:41:03.723Z,2.72
2019-04-23T02:48:36.193Z,2.52
2019-04-23T02:50:54.247Z,2.70
2019-04-23T02:56:14.664Z,2.45
2019-04-23T02:58:43.985Z,2.37
2019-04-23T03:03:44.931Z,2.55
2019-04-23T03:06:10.110Z,2.70
2019-04-23T03:08:42.657Z,2.50
2019-04-23T03:11:20.714Z,2.42
2019-04-23T03:13:47.818Z,2.77
2019-04-23T03:18:52.133Z,2.47
2019-04-23T03:24:28.405Z,2.83
2019-04-23T03:29:49.098Z,2.83
2019-04-23T03:32:50.795Z,2.80
2019-04-23T03:49:55.345Z,3.08
2019-04-23T03:54:48.969Z,2.58
2019-04-23T03:57:28.507Z,2.50
2019-04-23T04:00:17.662Z,2.80
2019-04-23T04:04:49.795Z,2.95
2019-04-23T04:07:55.777Z,2.70
2019-04-23T04:09:53.886Z,3.02
2019-04-23T04:12:39.237Z,3.20
2019-04-23T04:15:06.009Z,3.22
2019-04-23T04:17:26.629Z,3.00
2019-04-23T04:20:05.335Z,2.77
2019-04-23T04:22:47.122Z,2.85
2019-04-23T04:28:04.500Z,2.70
2019-04-23T04:30:28.034Z,2.98
2019-04-23T04:33:11.821Z,3.00
2019-04-23T04:35:25.047Z,3.00
2019-04-23T04:38:13.001Z,2.72
2019-04-23T04:40:39.550Z,2.80
2019-04-23T05:12:43.860Z,3.08
2019-04-23T05:32:50.473Z,3.60
2019-04-23T05:35:28.649Z,4.00
2019-04-23T05:49:25.685Z,3.55
2019-04-23T05:51:55.447Z,3.40
2019-04-23T05:54:36.754Z,3.65
2019-04-23T05:57:01.960Z,3.42
2019-04-23T05:59:35.793Z,3.45
2019-04-23T06:02:26.780Z,3.72
2019-04-23T06:04:42.692Z,3.62
2019-04-23T06:07:28.930Z,3.95
2019-04-23T06:12:33.648Z,3.92
2019-04-23T06:34:53.231Z,4.53
2019-04-23T06:37:46.646Z,3.95
2019-04-23T06:40:25.163Z,4.12
2019-04-23T06:48:58.977Z,4.33
2019-04-23T07:11:39.175Z,4.90
2019-04-23T07:24:54.443Z,4.42
2019-04-23T07:30:03.561Z,5.03
2019-04-23T08:54:11.776Z,6.58
2019-04-23T08:59:31.328Z,5.97
2019-04-23T09:02:18.304Z,6.47
2019-04-23T09:20:30.540Z,6.60
2019-04-23T09:38:48.054Z,7.25
2019-04-23T10:00:38.069Z,7.50
2019-04-23T10:02:56.873Z,7.60
2019-04-23T10:08:26.812Z,7.60
2019-04-23T10:33:21.321Z,8.73
2019-04-23T10:36:02.644Z,7.72
2019-04-23T10:38:32.761Z,8.00
2019-04-23T10:41:02.271Z,8.48
2019-04-23T10:43:40.442Z,7.58
2019-04-23T10:46:28.057Z,7.42
2019-04-23T10:52:19.059Z,8.05
2019-04-23T10:57:19.812Z,8.43
2019-04-23T10:59:53.642Z,8.85
2019-04-23T11:02:43.224Z,7.62
2019-04-23T11:07:50.857Z,7.83
2019-04-23T12:01:52.726Z,7.87
2019-04-23T12:04:34.997Z,7.90
2019-04-23T12:06:59.727Z,8.23
2019-04-23T12:28:57.330Z,8.38
2019-04-23T12:37:42.300Z,8.05
2019-04-23T12:45:21.755Z,7.95
2019-04-23T12:52:54.155Z,7.37
2019-04-23T12:58:31.703Z,7.10
2019-04-23T13:10:22.182Z,7.30
2019-04-23T13:12:58.809Z,7.00
2019-04-23T13:24:29.205Z,6.70
2019-04-23T13:29:43.488Z,6.47
2019-04-23T13:32:04.379Z,6.60
2019-04-23T13:34:48.506Z,6.78
2019-04-23T13:37:16.194Z,6.83
2019-04-23T13:39:40.401Z,6.30
2019-04-23T13:42:19.699Z,7.17
2019-04-23T13:44:42.352Z,6.78
2019-04-23T13:47:19.760Z,6.40
2019-04-23T13:49:51.158Z,6.55
2019-04-23T13:52:45.598Z,6.97
2019-04-23T13:55:00.291Z,6.87
2019-04-23T13:57:49.697Z,6.70
2019-04-23T13:59:51.469Z,6.62
2019-04-23T14:02:31.121Z,7.75
2019-04-23T14:04:59.226Z,8.03
2019-04-23T14:07:41.866Z,7.50
2019-04-23T14:10:04.490Z,7.10
2019-04-23T14:12:41.615Z,7.20
2019-04-23T14:20:07.216Z,7.22
2019-04-23T14:27:51.982Z,7.47
2019-04-23T14:32:49.593Z,7.20
2019-04-23T14:38:01.665Z,7.45
2019-04-23T14:40:22.123Z,7.22
2019-04-23T14:45:29.545Z,7.08
2019-04-23T14:48:00.853Z,7.08
2019-04-23T14:53:06.335Z,7.45
2019-04-23T14:58:10.396Z,7.33
2019-04-23T15:00:41.349Z,7.17
2019-04-23T15:03:08.663Z,7.97
2019-04-23T15:05:45.775Z,7.17
2019-04-23T15:08:15.528Z,8.05
2019-04-23T15:13:16.881Z,7.58
2019-04-23T15:15:44.289Z,7.78
2019-04-23T15:18:33.040Z,8.28
2019-04-23T15:21:08.649Z,8.13
2019-04-23T15:23:58.240Z,8.18
2019-04-23T15:26:50.895Z,7.87
2019-04-23T15:28:09.102Z,8.05
2019-04-23T15:31:04.077Z,8.80
2019-04-23T15:33:41.329Z,7.90
2019-04-23T15:36:25.379Z,8.50
2019-04-23T15:38:43.448Z,8.75
2019-04-23T15:41:07.434Z,7.72
2019-04-23T15:43:39.270Z,7.85
2019-04-23T15:48:49.882Z,7.62
2019-04-23T15:53:37.228Z,8.25
2019-04-23T15:56:18.700Z,8.03
2019-04-23T15:58:56.073Z,7.67
2019-04-23T16:09:00.896Z,7.65
2019-04-23T16:11:33.597Z,7.35
2019-04-23T16:22:07.240Z,7.08
2019-04-23T16:24:26.402Z,7.40
2019-04-23T16:27:07.466Z,6.90
2019-04-23T16:32:14.660Z,8.85
2019-04-23T16:35:06.213Z,7.35
2019-04-23T16:37:15.567Z,7.95
2019-04-23T16:39:48.749Z,6.22
2019-04-23T16:44:56.318Z,8.40
2019-04-23T16:49:58.056Z,7.55
2019-04-23T16:52:24.465Z,7.37
2019-04-23T16:54:54.769Z,7.97
2019-04-23T16:57:32.651Z,7.53
2019-04-23T17:02:27.583Z,7.42
2019-04-23T17:05:02.933Z,7.67
2019-04-23T17:07:22.100Z,7.70
2019-04-23T17:12:52.832Z,7.60
2019-04-23T17:15:03.213Z,8.55
2019-04-23T17:17:25.200Z,7.85
2019-04-23T17:20:12.296Z,8.10
2019-04-23T17:22:31.314Z,7.50
2019-04-23T17:25:13.776Z,7.40
2019-04-23T17:27:39.133Z,7.97
2019-04-23T17:30:11.710Z,7.22
2019-04-23T17:33:02.931Z,8.30
2019-04-23T17:35:55.625Z,7.72
2019-04-23T17:38:27.915Z,7.85
2019-04-23T17:41:00.070Z,8.10
2019-04-23T17:43:25.888Z,7.47
2019-04-23T17:45:53.834Z,7.75
2019-04-23T17:48:27.196Z,7.37
2019-04-23T17:56:20.054Z,7.53
2019-04-23T18:03:52.035Z,7.72
2019-04-23T18:06:30.195Z,7.92
2019-04-23T18:08:49.382Z,7.92
2019-04-23T18:11:17.981Z,7.95
2019-04-23T18:13:49.527Z,7.95
2019-04-23T18:16:30.613Z,8.50
2019-04-23T18:21:37.232Z,7.28
2019-04-23T18:24:04.891Z,7.45
2019-04-23T18:26:45.832Z,7.33
2019-04-23T18:29:43.863Z,8.13
2019-04-23T18:32:30.171Z,8.48
2019-04-23T18:39:54.694Z,8.18
2019-04-23T18:42:37.173Z,8.33
2019-04-23T18:44:57.368Z,7.97
2019-04-23T18:47:40.530Z,8.10
2019-04-23T18:50:02.162Z,8.65
2019-04-23T18:52:41.028Z,7.30
2019-04-23T18:55:08.783Z,7.85
2019-04-23T18:57:40.330Z,7.65
2019-04-23T19:00:10.950Z,9.83
2019-04-23T19:02:56.662Z,8.00
2019-04-23T19:05:26.034Z,9.15
2019-04-23T19:10:50.612Z,8.73
2019-04-23T19:13:34.314Z,8.70
2019-04-23T19:16:01.921Z,8.88
2019-04-23T19:18:35.979Z,9.30
2019-04-23T19:26:30.927Z,8.78
2019-04-23T19:31:18.790Z,9.33
2019-04-23T19:34:05.344Z,8.80
2019-04-23T19:36:40.300Z,8.68
2019-04-23T19:38:43.472Z,9.35
2019-04-23T19:41:20.535Z,8.43
2019-04-23T19:46:34.013Z,9.08
2019-04-23T19:49:04.342Z,8.75
2019-04-23T19:51:28.182Z,9.08
2019-04-23T19:54:01.284Z,7.90
2019-04-23T19:56:31.962Z,8.40
2019-04-23T19:58:56.865Z,8.95
2019-04-23T20:06:53.985Z,8.98
2019-04-23T20:09:17.680Z,8.95
2019-04-23T20:11:42.618Z,9.40
2019-04-23T20:14:02.664Z,9.45
2019-04-23T20:19:06.500Z,10.23
2019-04-23T20:21:47.408Z,10.10
2019-04-23T20:24:20.398Z,9.85
2019-04-23T20:26:43.189Z,10.35
2019-04-23T20:29:29.651Z,10.25
2019-04-23T20:34:34.211Z,10.45
2019-04-23T20:39:33.294Z,10.48
2019-04-23T20:42:12.089Z,10.82
2019-04-23T20:44:39.556Z,11.18
2019-04-23T20:49:38.781Z,10.85
2019-04-23T20:54:42.409Z,10.45
2019-04-23T20:57:11.926Z,11.25
2019-04-23T20:59:44.206Z,10.32
2019-04-23T21:04:47.716Z,10.80
2019-04-23T21:07:17.625Z,10.13
2019-04-23T21:10:01.034Z,10.60
2019-04-23T21:12:27.826Z,10.88
2019-04-23T21:17:26.277Z,11.88
2019-04-23T21:20:01.416Z,11.55
2019-04-23T21:22:24.011Z,12.07
2019-04-23T21:30:10.828Z,12.53
2019-04-23T21:32:43.844Z,11.28
2019-04-23T21:35:10.550Z,13.45
2019-04-23T21:37:45.475Z,11.50
2019-04-23T21:40:28.521Z,11.83
2019-04-23T21:45:36.973Z,13.22
2019-04-23T21:48:15.530Z,13.00
2019-04-23T21:50:39.771Z,12.58
2019-04-23T21:53:00.671Z,12.95
2019-04-23T21:55:39.037Z,13.53
2019-04-23T21:58:17.274Z,13.80
2019-04-23T22:03:12.058Z,13.45
2019-04-23T22:05:47.926Z,13.68
2019-04-23T22:10:49.449Z,13.65
2019-04-23T22:16:03.989Z,13.05
2019-04-23T22:18:12.699Z,13.75
2019-04-23T22:20:51.423Z,13.55
2019-04-23T22:23:18.642Z,14.07
2019-04-23T22:25:56.495Z,13.38
2019-04-23T22:28:30.967Z,13.18
2019-04-23T22:30:54.889Z,14.15
2019-04-23T22:33:31.690Z,14.98
2019-04-23T22:41:05.013Z,13.43
2019-04-23T22:43:38.087Z,13.30
2019-04-23T22:46:05.390Z,13.83
2019-04-23T22:48:34.202Z,14.73
2019-04-23T22:53:36.493Z,13.18
2019-04-23T22:58:41.568Z,14.58
2019-04-23T23:01:23.465Z,13.78
2019-04-23T23:03:43.816Z,14.58
2019-04-23T23:06:18.194Z,14.40
2019-04-23T23:08:55.505Z,14.38
2019-04-23T23:11:15.419Z,15.23
2019-04-23T23:14:07.151Z,14.45
2019-04-23T23:16:16.732Z,14.55
2019-04-23T23:18:49.435Z,13.75
2019-04-23T23:21:20.676Z,14.43
2019-04-23T23:23:52.940Z,14.70
2019-04-23T23:26:20.325Z,13.55
2019-04-23T23:28:58.364Z,13.40
2019-04-23T23:31:24.748Z,14.25
2019-04-23T23:33:58.944Z,14.28
2019-04-23T23:36:28.451Z,13.70
2019-04-23T23:44:26.273Z,13.78
2019-04-23T23:46:35.312Z,12.80
2019-04-23T23:49:03.260Z,13.68
2019-04-23T23:51:40.295Z,13.25
2019-04-23T23:54:13.865Z,12.90
2019-04-23T23:56:58.431Z,12.82
2019-04-23T23:59:10.392Z,11.88
